KLM42P EDDC-EHAM
Flight info
| Callsign | KLM42P |
|---|---|
| Flight time | 1h 4m |
| Altitude | 38000 |
| Route | OSKAN9E/04 OSKAN M748 BOLBO L986 KOSIX DCT POVEL DCT NORKU NORKU2A |
| Aircraft | A20N/M-VGDW/C |
Departure
| Time | 2026-04-28 11:20 |
|---|---|
| Airport | Dresden Airport (EDDC) |
Arrival
| Time | 2026-04-28 12:24 |
|---|---|
| Airport | Amsterdam Airport Schiphol (EHAM) |
| Time | Latitude | Longitude | Altitude | Speed | Heading |
|---|---|---|---|---|---|
| 2026-04-28 10:58 | 51.12628 | 13.76544 | 727 ft | 0 kts | 220° |
| 2026-04-28 11:11 | 51.12629 | 13.76545 | 753 ft | 1 kts | 220° |
| 2026-04-28 11:11 | 51.12635 | 13.76553 | 748 ft | 1 kts | 220° |
| 2026-04-28 11:11 | 51.12640 | 13.76561 | 749 ft | 1 kts | 220° |
| 2026-04-28 11:11 | 51.12649 | 13.76572 | 751 ft | 2 kts | 220° |
| 2026-04-28 11:12 | 51.12660 | 13.76587 | 749 ft | 2 kts | 220° |
| 2026-04-28 11:12 | 51.12675 | 13.76608 | 749 ft | 2 kts | 220° |
| 2026-04-28 11:12 | 51.12683 | 13.76618 | 749 ft | 2 kts | 220° |
| 2026-04-28 11:12 | 51.12693 | 13.76635 | 747 ft | 2 kts | 243° |
| 2026-04-28 11:13 | 51.12698 | 13.76657 | 748 ft | 2 kts | 262° |
| 2026-04-28 11:13 | 51.12699 | 13.76674 | 748 ft | 1 kts | 284° |
| 2026-04-28 11:13 | 51.12698 | 13.76682 | 748 ft | 0 kts | 304° |
| 2026-04-28 11:15 | 51.12698 | 13.76681 | 748 ft | 1 kts | 304° |
| 2026-04-28 11:15 | 51.12711 | 13.76656 | 749 ft | 5 kts | 311° |
| 2026-04-28 11:15 | 51.12747 | 13.76591 | 750 ft | 10 kts | 311° |
| 2026-04-28 11:15 | 51.12807 | 13.76484 | 744 ft | 15 kts | 309° |
| 2026-04-28 11:16 | 51.12787 | 13.76387 | 744 ft | 9 kts | 221° |
| 2026-04-28 11:16 | 51.12731 | 13.76309 | 746 ft | 12 kts | 220° |
| 2026-04-28 11:16 | 51.12663 | 13.76217 | 748 ft | 13 kts | 221° |
| 2026-04-28 11:16 | 51.12593 | 13.76121 | 752 ft | 14 kts | 222° |
| 2026-04-28 11:17 | 51.12520 | 13.76018 | 754 ft | 14 kts | 221° |
| 2026-04-28 11:17 | 51.12446 | 13.75917 | 759 ft | 15 kts | 220° |
| 2026-04-28 11:17 | 51.12371 | 13.75803 | 762 ft | 14 kts | 239° |
| 2026-04-28 11:17 | 51.12385 | 13.75703 | 762 ft | 7 kts | 292° |
| 2026-04-28 11:18 | 51.12388 | 13.75692 | 761 ft | 1 kts | 292° |
| 2026-04-28 11:18 | 51.12394 | 13.75666 | 761 ft | 4 kts | 292° |
| 2026-04-28 11:18 | 51.12411 | 13.75606 | 762 ft | 7 kts | 299° |
| 2026-04-28 11:18 | 51.12441 | 13.75538 | 764 ft | 8 kts | 309° |
| 2026-04-28 11:19 | 51.12489 | 13.75507 | 765 ft | 8 kts | 8° |
| 2026-04-28 11:19 | 51.12544 | 13.75577 | 763 ft | 16 kts | 40° |
| 2026-04-28 11:19 | 51.12795 | 13.75923 | 752 ft | 82 kts | 40° |
| 2026-04-28 11:19 | 51.13371 | 13.76711 | 734 ft | 135 kts | 41° |
| 2026-04-28 11:20 | 51.14164 | 13.77794 | 989 ft | 153 kts | 42° |
| 2026-04-28 11:20 | 51.14981 | 13.78889 | 1643 ft | 155 kts | 41° |
| 2026-04-28 11:20 | 51.15847 | 13.80054 | 2160 ft | 169 kts | 39° |
| 2026-04-28 11:20 | 51.16781 | 13.81295 | 2657 ft | 181 kts | 40° |
| 2026-04-28 11:21 | 51.17777 | 13.82642 | 3173 ft | 196 kts | 40° |
| 2026-04-28 11:21 | 51.18875 | 13.84174 | 3698 ft | 224 kts | 37° |
| 2026-04-28 11:21 | 51.20324 | 13.85275 | 4362 ft | 242 kts | 9° |
| 2026-04-28 11:21 | 51.22054 | 13.85220 | 4984 ft | 261 kts | 352° |
| 2026-04-28 11:22 | 51.23874 | 13.84691 | 6043 ft | 261 kts | 349° |
| 2026-04-28 11:22 | 51.25634 | 13.84158 | 7100 ft | 263 kts | 350° |
| 2026-04-28 11:22 | 51.27454 | 13.83695 | 8013 ft | 267 kts | 351° |
| 2026-04-28 11:22 | 51.29225 | 13.82816 | 8979 ft | 270 kts | 329° |
| 2026-04-28 11:23 | 51.30565 | 13.80731 | 10105 ft | 273 kts | 303° |
| 2026-04-28 11:23 | 51.31415 | 13.77954 | 10903 ft | 288 kts | 293° |
| 2026-04-28 11:23 | 51.32046 | 13.74780 | 11280 ft | 312 kts | 287° |
| 2026-04-28 11:23 | 51.32574 | 13.71296 | 11771 ft | 330 kts | 284° |
| 2026-04-28 11:24 | 51.33086 | 13.67699 | 12669 ft | 334 kts | 284° |
| 2026-04-28 11:24 | 51.33628 | 13.64067 | 13565 ft | 337 kts | 285° |
| 2026-04-28 11:24 | 51.34202 | 13.60406 | 14386 ft | 341 kts | 286° |
| 2026-04-28 11:24 | 51.34795 | 13.56718 | 15212 ft | 344 kts | 286° |
| 2026-04-28 11:25 | 51.35398 | 13.53011 | 16043 ft | 346 kts | 286° |
| 2026-04-28 11:25 | 51.36011 | 13.49257 | 16841 ft | 350 kts | 286° |
| 2026-04-28 11:25 | 51.36628 | 13.45472 | 17613 ft | 353 kts | 286° |
| 2026-04-28 11:25 | 51.37247 | 13.41655 | 18398 ft | 356 kts | 286° |
| 2026-04-28 11:26 | 51.37869 | 13.37807 | 19092 ft | 359 kts | 286° |
| 2026-04-28 11:26 | 51.38495 | 13.33921 | 19750 ft | 361 kts | 286° |
| 2026-04-28 11:26 | 51.39118 | 13.30035 | 20374 ft | 365 kts | 286° |
| 2026-04-28 11:26 | 51.39750 | 13.26078 | 21027 ft | 367 kts | 286° |
| 2026-04-28 11:27 | 51.40386 | 13.22092 | 21680 ft | 370 kts | 286° |
| 2026-04-28 11:27 | 51.41018 | 13.18128 | 22309 ft | 373 kts | 286° |
| 2026-04-28 11:27 | 51.41659 | 13.14092 | 22924 ft | 376 kts | 285° |
| 2026-04-28 11:27 | 51.42307 | 13.09997 | 23530 ft | 379 kts | 285° |
| 2026-04-28 11:28 | 51.42956 | 13.05886 | 24085 ft | 383 kts | 285° |
| 2026-04-28 11:28 | 51.43610 | 13.01735 | 24626 ft | 384 kts | 285° |
| 2026-04-28 11:28 | 51.44264 | 12.97567 | 25145 ft | 386 kts | 285° |
| 2026-04-28 11:28 | 51.44911 | 12.93379 | 25639 ft | 388 kts | 285° |
| 2026-04-28 11:29 | 51.45571 | 12.89168 | 26136 ft | 390 kts | 285° |
| 2026-04-28 11:29 | 51.46237 | 12.84939 | 26625 ft | 392 kts | 285° |
| 2026-04-28 11:29 | 51.46903 | 12.80682 | 27090 ft | 395 kts | 285° |
| 2026-04-28 11:29 | 51.47570 | 12.76396 | 27544 ft | 397 kts | 285° |
| 2026-04-28 11:30 | 51.48237 | 12.72088 | 27993 ft | 399 kts | 285° |
| 2026-04-28 11:30 | 51.49576 | 12.63394 | 28833 ft | 404 kts | 285° |
| 2026-04-28 11:30 | 51.50241 | 12.59059 | 29235 ft | 405 kts | 285° |
| 2026-04-28 11:31 | 51.50867 | 12.54964 | 29590 ft | 407 kts | 285° |
| 2026-04-28 11:31 | 51.51545 | 12.50517 | 29968 ft | 409 kts | 285° |
| 2026-04-28 11:31 | 51.52223 | 12.46059 | 30342 ft | 412 kts | 285° |
| 2026-04-28 11:31 | 51.52902 | 12.41583 | 30672 ft | 414 kts | 284° |
| 2026-04-28 11:32 | 51.53581 | 12.37089 | 31006 ft | 415 kts | 284° |
| 2026-04-28 11:32 | 51.54264 | 12.32564 | 31327 ft | 417 kts | 284° |
| 2026-04-28 11:32 | 51.54945 | 12.28036 | 31705 ft | 417 kts | 284° |
| 2026-04-28 11:32 | 51.55624 | 12.23508 | 32136 ft | 416 kts | 284° |
| 2026-04-28 11:33 | 51.56299 | 12.18994 | 32577 ft | 415 kts | 284° |
| 2026-04-28 11:33 | 51.56970 | 12.14495 | 33012 ft | 413 kts | 284° |
| 2026-04-28 11:33 | 51.57637 | 12.10005 | 33416 ft | 413 kts | 284° |
| 2026-04-28 11:33 | 51.58301 | 12.05526 | 33807 ft | 412 kts | 284° |
| 2026-04-28 11:34 | 51.58963 | 12.01047 | 34196 ft | 410 kts | 284° |
| 2026-04-28 11:34 | 51.59620 | 11.96589 | 34531 ft | 410 kts | 284° |
| 2026-04-28 11:34 | 51.60277 | 11.92126 | 34782 ft | 411 kts | 284° |
| 2026-04-28 11:34 | 51.60933 | 11.87651 | 35030 ft | 411 kts | 284° |
| 2026-04-28 11:35 | 51.61588 | 11.83166 | 35289 ft | 411 kts | 284° |
| 2026-04-28 11:35 | 51.62241 | 11.78682 | 35535 ft | 412 kts | 284° |
| 2026-04-28 11:35 | 51.62895 | 11.74183 | 35773 ft | 413 kts | 284° |
| 2026-04-28 11:35 | 51.63546 | 11.69685 | 36014 ft | 413 kts | 284° |
| 2026-04-28 11:36 | 51.64196 | 11.65185 | 36260 ft | 413 kts | 284° |
| 2026-04-28 11:36 | 51.64837 | 11.60734 | 36469 ft | 414 kts | 284° |
| 2026-04-28 11:36 | 51.65486 | 11.56220 | 36684 ft | 414 kts | 284° |
| 2026-04-28 11:36 | 51.66134 | 11.51694 | 36898 ft | 415 kts | 284° |
| 2026-04-28 11:37 | 51.66780 | 11.47165 | 37111 ft | 415 kts | 284° |
| 2026-04-28 11:37 | 51.67425 | 11.42636 | 37323 ft | 415 kts | 284° |
| 2026-04-28 11:37 | 51.68070 | 11.38095 | 37429 ft | 415 kts | 284° |
| 2026-04-28 11:37 | 51.68709 | 11.33571 | 37316 ft | 412 kts | 284° |
| 2026-04-28 11:38 | 51.69982 | 11.24538 | 37314 ft | 416 kts | 284° |
| 2026-04-28 11:38 | 51.71256 | 11.15445 | 37312 ft | 416 kts | 284° |
| 2026-04-28 11:39 | 51.72523 | 11.06343 | 37309 ft | 416 kts | 283° |
| 2026-04-28 11:39 | 51.73786 | 10.97211 | 37303 ft | 417 kts | 283° |
| 2026-04-28 11:40 | 51.75041 | 10.88078 | 37298 ft | 417 kts | 283° |
| 2026-04-28 11:40 | 51.76294 | 10.78910 | 37355 ft | 420 kts | 283° |
| 2026-04-28 11:41 | 51.76918 | 10.74323 | 37706 ft | 415 kts | 283° |
| 2026-04-28 11:41 | 51.77528 | 10.69813 | 38175 ft | 410 kts | 283° |
| 2026-04-28 11:41 | 51.78138 | 10.65303 | 38295 ft | 412 kts | 283° |
| 2026-04-28 11:41 | 51.78751 | 10.60756 | 38296 ft | 416 kts | 283° |
| 2026-04-28 11:42 | 51.79979 | 10.51606 | 38292 ft | 421 kts | 283° |
| 2026-04-28 11:42 | 51.81210 | 10.42360 | 38293 ft | 421 kts | 283° |
| 2026-04-28 11:43 | 51.82437 | 10.33095 | 38294 ft | 422 kts | 283° |
| 2026-04-28 11:43 | 51.83658 | 10.23809 | 38294 ft | 423 kts | 283° |
| 2026-04-28 11:44 | 51.84872 | 10.14512 | 38293 ft | 423 kts | 283° |
| 2026-04-28 11:44 | 51.86082 | 10.05192 | 38294 ft | 423 kts | 283° |
| 2026-04-28 11:45 | 51.87284 | 9.95869 | 38292 ft | 423 kts | 283° |
| 2026-04-28 11:45 | 51.88481 | 9.86528 | 38284 ft | 424 kts | 283° |
| 2026-04-28 11:46 | 51.89670 | 9.77178 | 38316 ft | 425 kts | 283° |
| 2026-04-28 11:46 | 51.90868 | 9.67692 | 38298 ft | 434 kts | 283° |
| 2026-04-28 11:47 | 51.92070 | 9.58109 | 38285 ft | 434 kts | 283° |
| 2026-04-28 11:47 | 51.93262 | 9.48535 | 38283 ft | 434 kts | 283° |
| 2026-04-28 11:48 | 51.94450 | 9.38941 | 38290 ft | 434 kts | 283° |
| 2026-04-28 11:48 | 51.95621 | 9.29407 | 38294 ft | 435 kts | 282° |
| 2026-04-28 11:49 | 51.96794 | 9.19791 | 38296 ft | 435 kts | 283° |
| 2026-04-28 11:49 | 51.97961 | 9.10145 | 38296 ft | 436 kts | 282° |
| 2026-04-28 11:50 | 51.99120 | 9.00504 | 38297 ft | 436 kts | 282° |
| 2026-04-28 11:50 | 52.00276 | 8.90827 | 38299 ft | 437 kts | 282° |
| 2026-04-28 11:51 | 52.01422 | 8.81152 | 38296 ft | 436 kts | 282° |
| 2026-04-28 11:51 | 52.02560 | 8.71467 | 38293 ft | 437 kts | 282° |
| 2026-04-28 11:52 | 52.03694 | 8.61759 | 38290 ft | 438 kts | 282° |
| 2026-04-28 11:52 | 52.04819 | 8.52041 | 38288 ft | 438 kts | 282° |
| 2026-04-28 11:53 | 52.05937 | 8.42317 | 38288 ft | 439 kts | 282° |
| 2026-04-28 11:53 | 52.07052 | 8.32542 | 38290 ft | 439 kts | 282° |
| 2026-04-28 11:54 | 52.08127 | 8.23041 | 38293 ft | 441 kts | 282° |
| 2026-04-28 11:54 | 52.09231 | 8.13221 | 38291 ft | 441 kts | 282° |
| 2026-04-28 11:55 | 52.10320 | 8.03437 | 38292 ft | 442 kts | 282° |
| 2026-04-28 11:55 | 52.11413 | 7.93576 | 38289 ft | 443 kts | 282° |
| 2026-04-28 11:56 | 52.12515 | 7.83716 | 38273 ft | 442 kts | 282° |
| 2026-04-28 11:56 | 52.13055 | 7.78800 | 38020 ft | 440 kts | 282° |
| 2026-04-28 11:56 | 52.13588 | 7.73904 | 37486 ft | 439 kts | 282° |
| 2026-04-28 11:57 | 52.14116 | 7.69012 | 36817 ft | 439 kts | 282° |
| 2026-04-28 11:57 | 52.14642 | 7.64110 | 36133 ft | 439 kts | 282° |
| 2026-04-28 11:57 | 52.15167 | 7.59211 | 35441 ft | 440 kts | 282° |
| 2026-04-28 11:57 | 52.15691 | 7.54296 | 34768 ft | 441 kts | 282° |
| 2026-04-28 11:58 | 52.16213 | 7.49377 | 34046 ft | 441 kts | 282° |
| 2026-04-28 11:58 | 52.16734 | 7.44458 | 33262 ft | 441 kts | 282° |
| 2026-04-28 11:58 | 52.17264 | 7.39531 | 32484 ft | 442 kts | 282° |
| 2026-04-28 11:58 | 52.17794 | 7.34592 | 31686 ft | 443 kts | 282° |
| 2026-04-28 11:59 | 52.18317 | 7.29645 | 30898 ft | 444 kts | 282° |
| 2026-04-28 11:59 | 52.18835 | 7.24693 | 30201 ft | 442 kts | 282° |
| 2026-04-28 11:59 | 52.19173 | 7.21440 | 29744 ft | 439 kts | 282° |
| 2026-04-28 11:59 | 52.19678 | 7.16555 | 29050 ft | 435 kts | 282° |
| 2026-04-28 12:00 | 52.20177 | 7.11718 | 28433 ft | 430 kts | 282° |
| 2026-04-28 12:00 | 52.20670 | 7.06920 | 27763 ft | 427 kts | 281° |
| 2026-04-28 12:00 | 52.21220 | 7.02181 | 27111 ft | 423 kts | 286° |
| 2026-04-28 12:00 | 52.22617 | 6.96316 | 26266 ft | 417 kts | 299° |
| 2026-04-28 12:01 | 52.23632 | 6.93597 | 25843 ft | 414 kts | 306° |
| 2026-04-28 12:01 | 52.25393 | 6.89906 | 25226 ft | 411 kts | 310° |
| 2026-04-28 12:01 | 52.27192 | 6.86294 | 24622 ft | 409 kts | 310° |
| 2026-04-28 12:01 | 52.28982 | 6.82710 | 24051 ft | 406 kts | 310° |
| 2026-04-28 12:02 | 52.30761 | 6.79149 | 23403 ft | 404 kts | 310° |
| 2026-04-28 12:02 | 52.32531 | 6.75604 | 22755 ft | 401 kts | 310° |
| 2026-04-28 12:02 | 52.34291 | 6.72074 | 22108 ft | 398 kts | 310° |
| 2026-04-28 12:02 | 52.36033 | 6.68574 | 21493 ft | 396 kts | 310° |
| 2026-04-28 12:03 | 52.37764 | 6.65089 | 20876 ft | 394 kts | 310° |
| 2026-04-28 12:03 | 52.39464 | 6.61661 | 20301 ft | 391 kts | 310° |
| 2026-04-28 12:03 | 52.41173 | 6.58215 | 19741 ft | 388 kts | 310° |
| 2026-04-28 12:03 | 52.42850 | 6.54827 | 19186 ft | 386 kts | 310° |
| 2026-04-28 12:04 | 52.44539 | 6.51409 | 18631 ft | 384 kts | 310° |
| 2026-04-28 12:04 | 52.46008 | 6.47775 | 17989 ft | 384 kts | 297° |
| 2026-04-28 12:04 | 52.46905 | 6.43668 | 17400 ft | 382 kts | 282° |
| 2026-04-28 12:04 | 52.47217 | 6.39385 | 17050 ft | 374 kts | 274° |
| 2026-04-28 12:05 | 52.47421 | 6.35162 | 16789 ft | 372 kts | 275° |
| 2026-04-28 12:05 | 52.47638 | 6.30878 | 16532 ft | 381 kts | 275° |
| 2026-04-28 12:05 | 52.47860 | 6.26521 | 16273 ft | 385 kts | 275° |
| 2026-04-28 12:05 | 52.48079 | 6.22146 | 16020 ft | 384 kts | 275° |
| 2026-04-28 12:06 | 52.48295 | 6.17796 | 15767 ft | 381 kts | 275° |
| 2026-04-28 12:06 | 52.48506 | 6.13486 | 15516 ft | 377 kts | 275° |
| 2026-04-28 12:06 | 52.48713 | 6.09212 | 15270 ft | 376 kts | 275° |
| 2026-04-28 12:06 | 52.48918 | 6.04938 | 15026 ft | 375 kts | 275° |
| 2026-04-28 12:07 | 52.49121 | 6.00675 | 14611 ft | 376 kts | 275° |
| 2026-04-28 12:07 | 52.49324 | 5.96390 | 14084 ft | 376 kts | 275° |
| 2026-04-28 12:07 | 52.49524 | 5.92129 | 13526 ft | 373 kts | 274° |
| 2026-04-28 12:07 | 52.49721 | 5.87906 | 13005 ft | 369 kts | 274° |
| 2026-04-28 12:08 | 52.49915 | 5.83730 | 12485 ft | 366 kts | 275° |
| 2026-04-28 12:08 | 52.50105 | 5.79585 | 11980 ft | 363 kts | 275° |
| 2026-04-28 12:08 | 52.50292 | 5.75472 | 11466 ft | 360 kts | 275° |
| 2026-04-28 12:08 | 52.50474 | 5.71450 | 11009 ft | 356 kts | 275° |
| 2026-04-28 12:09 | 52.50653 | 5.67468 | 10853 ft | 343 kts | 275° |
| 2026-04-28 12:09 | 52.50823 | 5.63638 | 10723 ft | 330 kts | 274° |
| 2026-04-28 12:09 | 52.50984 | 5.59955 | 10609 ft | 317 kts | 274° |
| 2026-04-28 12:09 | 52.50881 | 5.56405 | 10416 ft | 308 kts | 259° |
| 2026-04-28 12:10 | 52.50314 | 5.53103 | 10314 ft | 294 kts | 249° |
| 2026-04-28 12:10 | 52.49620 | 5.49966 | 10296 ft | 295 kts | 249° |
| 2026-04-28 12:10 | 52.48918 | 5.46718 | 10291 ft | 309 kts | 249° |
| 2026-04-28 12:10 | 52.48193 | 5.43344 | 10288 ft | 316 kts | 250° |
| 2026-04-28 12:11 | 52.47468 | 5.39964 | 10291 ft | 312 kts | 249° |
| 2026-04-28 12:11 | 52.46752 | 5.36640 | 10290 ft | 307 kts | 249° |
| 2026-04-28 12:11 | 52.46043 | 5.33360 | 10291 ft | 305 kts | 249° |
| 2026-04-28 12:11 | 52.45329 | 5.30075 | 10289 ft | 306 kts | 249° |
| 2026-04-28 12:12 | 52.44612 | 5.26775 | 10293 ft | 309 kts | 249° |
| 2026-04-28 12:12 | 52.43890 | 5.23454 | 10290 ft | 310 kts | 249° |
| 2026-04-28 12:12 | 52.43164 | 5.20125 | 10290 ft | 310 kts | 249° |
| 2026-04-28 12:12 | 52.42443 | 5.16821 | 10288 ft | 307 kts | 249° |
| 2026-04-28 12:13 | 52.41723 | 5.13526 | 10288 ft | 308 kts | 249° |
| 2026-04-28 12:13 | 52.40998 | 5.10213 | 10276 ft | 310 kts | 249° |
| 2026-04-28 12:13 | 52.40270 | 5.06893 | 10272 ft | 309 kts | 249° |
| 2026-04-28 12:13 | 52.39543 | 5.03584 | 10271 ft | 308 kts | 249° |
| 2026-04-28 12:14 | 52.38818 | 5.00291 | 10271 ft | 308 kts | 249° |
| 2026-04-28 12:14 | 52.38090 | 4.96988 | 10217 ft | 307 kts | 249° |
| 2026-04-28 12:14 | 52.37365 | 4.93702 | 9954 ft | 306 kts | 249° |
| 2026-04-28 12:14 | 52.36646 | 4.90447 | 9606 ft | 304 kts | 249° |
| 2026-04-28 12:15 | 52.35936 | 4.87240 | 9186 ft | 303 kts | 249° |
| 2026-04-28 12:15 | 52.35211 | 4.83975 | 8784 ft | 301 kts | 249° |
| 2026-04-28 12:15 | 52.34504 | 4.80788 | 8579 ft | 293 kts | 249° |
| 2026-04-28 12:15 | 52.33833 | 4.77761 | 8469 ft | 281 kts | 249° |
| 2026-04-28 12:16 | 52.33419 | 4.74717 | 8336 ft | 270 kts | 269° |
| 2026-04-28 12:16 | 52.33651 | 4.71717 | 8108 ft | 265 kts | 284° |
| 2026-04-28 12:16 | 52.34077 | 4.68792 | 7777 ft | 264 kts | 284° |
| 2026-04-28 12:16 | 52.34489 | 4.65869 | 7466 ft | 263 kts | 281° |
| 2026-04-28 12:17 | 52.34385 | 4.62946 | 7283 ft | 254 kts | 249° |
| 2026-04-28 12:17 | 52.33533 | 4.60409 | 7273 ft | 261 kts | 235° |
| 2026-04-28 12:17 | 52.32543 | 4.57892 | 7244 ft | 263 kts | 234° |
| 2026-04-28 12:17 | 52.31567 | 4.55406 | 7129 ft | 257 kts | 235° |
| 2026-04-28 12:18 | 52.30605 | 4.52941 | 6800 ft | 257 kts | 234° |
| 2026-04-28 12:18 | 52.29643 | 4.50479 | 6420 ft | 257 kts | 235° |
| 2026-04-28 12:18 | 52.28689 | 4.48015 | 6044 ft | 256 kts | 235° |
| 2026-04-28 12:18 | 52.27728 | 4.45571 | 5680 ft | 256 kts | 230° |
| 2026-04-28 12:19 | 52.26390 | 4.43765 | 5264 ft | 248 kts | 199° |
| 2026-04-28 12:19 | 52.24746 | 4.43304 | 4855 ft | 237 kts | 167° |
| 2026-04-28 12:19 | 52.23270 | 4.44223 | 4505 ft | 223 kts | 142° |
| 2026-04-28 12:19 | 52.22076 | 4.45775 | 4173 ft | 216 kts | 125° |
| 2026-04-28 12:20 | 52.21356 | 4.47869 | 3830 ft | 210 kts | 105° |
| 2026-04-28 12:20 | 52.21000 | 4.50180 | 3403 ft | 211 kts | 97° |
| 2026-04-28 12:20 | 52.21043 | 4.52539 | 3024 ft | 208 kts | 75° |
| 2026-04-28 12:20 | 52.21561 | 4.54717 | 2739 ft | 205 kts | 63° |
| 2026-04-28 12:21 | 52.22264 | 4.56717 | 2463 ft | 202 kts | 59° |
| 2026-04-28 12:21 | 52.23013 | 4.58632 | 2171 ft | 198 kts | 58° |
| 2026-04-28 12:21 | 52.23724 | 4.60463 | 1913 ft | 189 kts | 58° |
| 2026-04-28 12:21 | 52.24399 | 4.62194 | 1651 ft | 172 kts | 58° |
| 2026-04-28 12:22 | 52.25003 | 4.63743 | 1463 ft | 152 kts | 58° |
| 2026-04-28 12:22 | 52.25538 | 4.65118 | 1261 ft | 136 kts | 59° |
| 2026-04-28 12:22 | 52.26020 | 4.66357 | 1079 ft | 121 kts | 58° |
| 2026-04-28 12:22 | 52.26454 | 4.67457 | 902 ft | 110 kts | 56° |
| 2026-04-28 12:23 | 52.26892 | 4.68504 | 754 ft | 116 kts | 57° |
| 2026-04-28 12:23 | 52.27333 | 4.69631 | 623 ft | 118 kts | 56° |
| 2026-04-28 12:23 | 52.27770 | 4.70747 | 434 ft | 115 kts | 57° |
| 2026-04-28 12:23 | 52.28191 | 4.71860 | 305 ft | 116 kts | 56° |
| 2026-04-28 12:24 | 52.28627 | 4.72977 | 136 ft | 118 kts | 57° |
| 2026-04-28 12:24 | 52.29058 | 4.74109 | 11 ft | 114 kts | 55° |
| 2026-04-28 12:24 | 52.29426 | 4.75056 | -4 ft | 74 kts | 58° |
| 2026-04-28 12:24 | 52.29596 | 4.75500 | -3 ft | 28 kts | 59° |
| 2026-04-28 12:25 | 52.29725 | 4.75751 | -4 ft | 29 kts | 31° |
| 2026-04-28 12:25 | 52.29866 | 4.75874 | -5 ft | 18 kts | 27° |
| 2026-04-28 12:25 | 52.29994 | 4.75998 | -4 ft | 22 kts | 48° |
| 2026-04-28 12:25 | 52.30049 | 4.76138 | -5 ft | 14 kts | 58° |
| 2026-04-28 12:26 | 52.30101 | 4.76270 | -3 ft | 13 kts | 57° |
| 2026-04-28 12:26 | 52.30152 | 4.76402 | -3 ft | 15 kts | 58° |
| 2026-04-28 12:26 | 52.30205 | 4.76537 | -3 ft | 9 kts | 58° |
| 2026-04-28 12:26 | 52.30242 | 4.76634 | -3 ft | 12 kts | 58° |
| 2026-04-28 12:27 | 52.30298 | 4.76780 | -6 ft | 18 kts | 58° |
| 2026-04-28 12:27 | 52.30368 | 4.76966 | -7 ft | 20 kts | 58° |
| 2026-04-28 12:27 | 52.30420 | 4.77041 | -8 ft | 11 kts | 12° |
| 2026-04-28 12:27 | 52.30487 | 4.76989 | -7 ft | 13 kts | 327° |
| 2026-04-28 12:28 | 52.30566 | 4.76908 | -5 ft | 14 kts | 331° |
| 2026-04-28 12:28 | 52.30650 | 4.76896 | -4 ft | 12 kts | 59° |
| 2026-04-28 12:28 | 52.30667 | 4.77019 | -3 ft | 6 kts | 36° |
| 2026-04-28 12:28 | 52.30715 | 4.77027 | -4 ft | 0 kts | 3° |